Wednesday, March 21, 2018, 4:52 PM EDT
Back to Local

KMPO, Mt Pocono Pocono Mountains

Location: Pocono Summit, PA, United States Lat: 41.133
Local Time: 4:52 PM EDT (20:52 GMT) Lon: -75.383
Time Zone: US/Eastern Elev: 1915 ft

Show me the last for .
Show Decoded

2018-03-21 15:53 METAR KMPO 211953Z AUTO 04008G18KT 10SM OVC034 00/M09 A2960 RMK AO2 SNB23E37
                 SLP042 P0000 T00001094 =
2018-03-21 14:53 METAR KMPO 211853Z AUTO 03010KT 10SM OVC035 M01/M09 A2959 RMK AO2 SNE01 SLP038
                 P0000 T10061094 =
2018-03-21 14:23 METAR KMPO 211823Z AUTO 03010G16KT 10SM BKN032 OVC041 M01/M09 A2958 RMK AO2
                 SNE01 P0000 T10111089 =
2018-03-21 13:53 METAR KMPO 211753Z AUTO VRB05KT 4SM -SN OVC018 M03/M06 A2958 RMK AO2 SLP039
                 P0000 60009 T10281056 11028 21044 58008 =
2018-03-21 13:40 METAR KMPO 211740Z AUTO 04010KT 1 3/4SM -SN OVC016 M03/M06 A2959 RMK AO2 P0000
                 T10281061 =
2018-03-21 13:03 METAR KMPO 211703Z AUTO 03009KT 010V070 1SM -SN BR VV012 M04/M05 A2959 RMK AO2
                 P0000 T10391050 =
2018-03-21 12:53 METAR KMPO 211653Z AUTO 04008G19KT 010V080 3/4SM -SN BR VV012 M04/M05 A2960 RMK
                 AO2 SLP045 P0004 T10391050 =
2018-03-21 12:38 METAR KMPO 211638Z AUTO 03010G20KT 1SM -SN BR BKN013 OVC025 M04/M06 A2960 RMK
                 AO2 P0003 T10391056 =
2018-03-21 12:00 METAR KMPO 211600Z AUTO 04010G20KT 1 3/4SM -SN BR FEW010 BKN029 OVC050 M04/M05
                 A2960 RMK AO2 P0001 T10391050 =
2018-03-21 11:53 METAR KMPO 211553Z AUTO 05010G24KT 2SM -SN BR FEW029 BKN038 OVC050 M04/M06 A2960
                 RMK AO2 SLP045 P0002 T10391056 =
2018-03-21 11:42 METAR KMPO 211542Z AUTO 05012G21KT 2 1/2SM -SN BR BKN032 BKN046 OVC055 M04/M06
                 A2960 RMK AO2 P0001 T10391056 =
2018-03-21 11:27 METAR KMPO 211527Z AUTO 04012G20KT 020V090 2SM -SN BR FEW011 BKN024 OVC036
                 M04/M06 A2960 RMK AO2 P0001 T10391056 =
2018-03-21 10:53 METAR KMPO 211453Z AUTO 05014G24KT 1SM -SN BR BKN016 BKN029 OVC035 M04/M05 A2961
                 RMK AO2 SLP049 P0001 60003 T10391050 56009 =
2018-03-21 10:36 METAR KMPO 211436Z AUTO 05010G19KT 1SM -SN BR FEW009 OVC014 M04/M05 A2961 RMK
                 AO2 P0001 T10391050 =
2018-03-21 09:53 METAR KMPO 211353Z AUTO 05010KT 1 3/4SM -SN BR FEW009 BKN021 OVC034 M04/M06
                 A2962 RMK AO2 SLP051 P0000 T10391056 =
2018-03-21 09:36 METAR KMPO 211336Z AUTO 06008G19KT 1 3/4SM -SN BR FEW009 BKN018 OVC035 M04/M05
                 A2962 RMK AO2 P0000 T10441050 =
2018-03-21 09:02 METAR KMPO 211302Z AUTO 06013G21KT 1SM -SN BR VV015 M04/M06 A2963 RMK AO2 P0000
                 T10441056 =
2018-03-21 08:53 METAR KMPO 211253Z AUTO 05011G21KT 3/4SM -SN BR VV013 M04/M06 A2963 RMK AO2
                 SLP055 P0002 T10441056 =
2018-03-21 08:38 METAR KMPO 211238Z AUTO 05011G20KT 3/4SM -SN BR VV013 M04/M06 A2963 RMK AO2
                 P0001 T10441056 =
2018-03-21 08:11 METAR KMPO 211211Z AUTO 06010G21KT 1SM -SN BR VV013 M04/M06 A2964 RMK AO2 P0001
                 T10441061 =
2018-03-21 07:53 METAR KMPO 211153Z AUTO 06011G24KT 1SM -SN BR VV016 M04/M06 A2964 RMK AO2 SLP059
                 P0000 60000 T10441061 11017 21044 55005 =
2018-03-21 07:20 METAR KMPO 211120Z AUTO 06010G19KT 1 3/4SM -SN BR OVC017 M04/M07 A2963 RMK AO2
                 P0000 T10441067 =
2018-03-21 07:11 METAR KMPO 211111Z AUTO 06015G21KT 2SM -SN OVC019 M04/M07 A2963 RMK AO2 P0000
                 T10391067 =
2018-03-21 06:53 METAR KMPO 211053Z AUTO 06013G25KT 020V080 4SM -SN OVC027 M04/M07 A2962 RMK AO2
                 PK WND 04031/0957 SLP053 P0000 T10391072 =
2018-03-21 05:53 METAR KMPO 210953Z AUTO 05015G28KT 5SM -SN OVC023 M03/M10 A2963 RMK AO2 PK WND
                 05028/0947 SNB31 SLP053 P0000 T10281100 =
2018-03-21 05:30 METAR KMPO 210930Z AUTO 05010G22KT 10SM OVC027 M02/M12 A2964 RMK AO2 T10221117 =
2018-03-21 04:53 METAR KMPO 210853Z AUTO 04008KT 10SM FEW027 BKN041 OVC070 M02/M12 A2966 RMK AO2
                 SLP063 T10221122 58013 =
2018-03-21 03:53 METAR KMPO 210753Z AUTO 06011G17KT 10SM FEW035 BKN049 OVC075 M02/M13 A2967 RMK
                 AO2 SLP067 T10221128 =
2018-03-21 02:53 METAR KMPO 210653Z AUTO 05010G18KT 10SM OVC060 M02/M13 A2968 RMK AO2 SLP073
                 T10171128 =
2018-03-21 01:53 METAR KMPO 210553Z AUTO 05011G19KT 10SM SCT046 OVC060 M02/M13 A2969 RMK AO2
                 SLP077 T10171128 11006 21017 56007 =
2018-03-21 00:53 METAR KMPO 210453Z AUTO 05015G26KT 10SM FEW039 OVC060 M02/M13 A2970 RMK AO2 PK
                 WND 04026/0453 SLP079 T10171128 410061078 =
2018-03-20 23:53 METAR KMPO 210353Z AUTO 05010G22KT 10SM OVC039 M01/M13 A2970 RMK AO2 SLP079
                 T10111128 =
2018-03-20 22:53 METAR KMPO 210253Z AUTO 04010G15KT 10SM SCT060 BKN110 M02/M13 A2972 RMK AO2
                 SLP087 T10171128 56008 =
2018-03-20 21:53 METAR KMPO 210153Z AUTO 05008G16KT 10SM FEW120 M01/M13 A2973 RMK AO2 SLP090
                 T10111133 =
2018-03-20 20:53 METAR KMPO 210053Z AUTO 05010G18KT 10SM OVC100 M01/M15 A2973 RMK AO2 SLP091
                 T10061150 =
2018-03-20 19:53 METAR KMPO 202353Z AUTO 03007KT 360V070 10SM SCT110 M01/M14 A2974 RMK AO2 SLP097
                 T10111144 11006 21028 50004 =
2018-03-20 18:53 METAR KMPO 202253Z AUTO 05007KT 10SM BKN110 M01/M16 A2975 RMK AO2 SLP101
                 T10061156 =
2018-03-20 17:53 METAR KMPO 202153Z AUTO 04007KT 10SM OVC100 M01/M14 A2975 RMK AO2 SLP099
                 T10111144 =
2018-03-20 16:53 METAR KMPO 202053Z AUTO 03008KT 10SM OVC100 M01/M14 A2973 RMK AO2 SLP092
                 T10111144 56026 =

Support USWX by starting your Amazon purchase here.